Time;durP1;ratioP1;P1;durP2;ratioP2;P2;SDS_P1;SDS_P2;PMS_P1;PMS_P2;Temp;Humidity;BMP_temperature;BMP_pressure;BME280_temperature;BME280_humidity;BME280_pressure;Samples;Min_cycle;Max_cycle;Signal;HPM_P1;HPM_P2
2022/07/11 00:02:14;;;;;;;;;;;;;;;20.10;49.56;152705.22;1782275;79;20143;-62
2022/07/11 00:04:42;;;;;;;;;;;;;;;20.06;49.73;152696.06;1801595;79;20620;-63
2022/07/11 00:07:09;;;;;;;;;;;;;;;20.00;49.96;152681.69;1782098;80;20762;-63
2022/07/11 00:09:36;;;;;;;;;;;;;;;19.93;50.28;152663.41;1781995;79;20143;-63
2022/07/11 00:12:05;;;;;;;;;;;;;;;19.87;50.56;152647.70;1782269;80;20177;-63
2022/07/11 00:14:32;;;;;;;;;;;;;;;19.81;50.78;152632.06;1782173;80;20174;-63
2022/07/11 00:17:00;;;;;;;;;;;;;;;19.77;50.83;152622.89;1782023;79;20125;-63
2022/07/11 00:19:28;;;;;;;;;;;;;;;19.74;50.77;152616.34;1782150;79;20508;-63
2022/07/11 00:21:56;;;;;;;;;;;;;;;19.68;50.94;152600.69;1782185;79;20190;-63
2022/07/11 00:24:24;;;;;;;;;;;;;;;19.63;51.11;152587.64;1782046;79;21224;-63
2022/07/11 00:26:53;;;;;;;;;;;;;;;19.54;51.39;152564.13;1782187;79;20149;-63
2022/07/11 00:29:19;;;;;;;;;;;;;;;19.49;51.66;152552.41;1782161;80;20194;-64
2022/07/11 00:31:47;;;;;;;;;;;;;;;19.46;51.86;152545.84;1782057;79;20195;-64
2022/07/11 00:34:15;;;;;;;;;;;;;;;19.41;52.11;152531.48;1782070;79;20167;-64
2022/07/11 00:36:44;;;;;;;;;;;;;;;19.35;52.35;152515.83;1781993;80;39121;-64
2022/07/11 00:39:11;;;;;;;;;;;;;;;19.27;52.68;152496.23;1782112;79;20172;-62
2022/07/11 00:41:38;;;;;;;;;;;;;;;19.20;52.95;152477.97;1782281;79;20134;-63
2022/07/11 00:44:06;;;;;;;;;;;;;;;19.14;53.19;152464.94;1782152;79;20158;-63
2022/07/11 00:46:33;;;;;;;;;;;;;;;19.08;53.44;152447.95;1781869;79;20190;-63
2022/07/11 00:49:00;;;;;;;;;;;;;;;19.02;53.60;152433.59;1782170;80;21118;-62
2022/07/11 00:51:27;;;;;;;;;;;;;;;18.96;53.87;152419.17;1782005;79;20146;-63
2022/07/11 00:53:55;;;;;;;;;;;;;;;18.92;54.10;152407.45;1782163;80;20166;-64
2022/07/11 00:56:24;;;;;;;;;;;;;;;18.85;54.43;152391.75;1782306;79;20568;-64
2022/07/11 00:58:51;;;;;;;;;;;;;;;18.77;54.71;152370.91;1782267;79;20141;-63
2022/07/11 01:01:18;;;;;;;;;;;;;;;18.69;55.08;152351.31;1782095;80;21206;-62
2022/07/11 01:03:44;;;;;;;;;;;;;;;18.64;55.41;152336.95;1782318;80;20418;-63
2022/07/11 01:06:11;;;;;;;;;;;;;;;18.63;55.64;152334.34;1782133;79;20163;-62
2022/07/11 01:08:38;;;;;;;;;;;;;;;18.60;55.91;152329.13;1782126;79;20401;-62
2022/07/11 01:11:12;;;;;;;;;;;;;;;18.56;56.07;152318.70;1781250;79;20128;-63
2022/07/11 01:13:38;;;;;;;;;;;;;;;18.53;56.35;152309.55;1780307;80;21131;-63
2022/07/11 01:16:18;;;;;;;;;;;;;;;18.50;56.60;152301.72;1780260;80;20476;-63
2022/07/11 01:18:47;;;;;;;;;;;;;;;18.49;56.80;152300.44;1780680;80;20416;-64
2022/07/11 01:21:32;;;;;;;;;;;;;;;18.46;56.96;152292.62;1780674;80;20195;-63
2022/07/11 01:24:00;;;;;;;;;;;;;;;18.44;57.02;152287.36;1780353;80;20183;-64
2022/07/11 01:26:27;;;;;;;;;;;;;;;18.39;57.15;152274.33;1780247;80;21133;-64
2022/07/11 01:28:57;;;;;;;;;;;;;;;18.36;57.41;152266.50;1780310;80;20287;-64
2022/07/11 01:31:23;;;;;;;;;;;;;;;18.34;57.59;152262.56;1780440;80;20167;-64
2022/07/11 01:33:49;;;;;;;;;;;;;;;18.30;57.86;152253.47;1774287;80;20453;-64
2022/07/11 01:36:16;;;;;;;;;;;;;;;18.27;58.18;152244.33;1772103;81;20248;-64
2022/07/11 01:38:43;;;;;;;;;;;;;;;18.24;58.52;152236.50;1772194;81;21850;-64
2022/07/11 01:41:10;;;;;;;;;;;;;;;18.22;58.80;152232.56;1772264;81;20187;-64
2022/07/11 01:43:38;;;;;;;;;;;;;;;18.24;58.89;152237.83;1772645;81;20366;-64
2022/07/11 01:46:05;;;;;;;;;;;;;;;18.27;58.96;152245.66;1772194;81;21483;-64
2022/07/11 01:48:33;;;;;;;;;;;;;;;18.26;59.08;152243.03;1772001;81;20124;-64
2022/07/11 01:51:00;;;;;;;;;;;;;;;18.23;59.14;152233.89;1774413;79;21232;-64
2022/07/11 01:53:26;;;;;;;;;;;;;;;18.20;59.24;152227.36;1801721;79;20175;-64
2022/07/11 01:55:53;;;;;;;;;;;;;;;18.16;59.24;152216.92;1805632;79;20163;-64
2022/07/11 01:58:20;;;;;;;;;;;;;;;18.11;59.22;152205.17;1805391;79;20168;-64
2022/07/11 02:00:46;;;;;;;;;;;;;;;18.08;59.32;152196.08;1805623;79;20175;-64
2022/07/11 02:03:13;;;;;;;;;;;;;;;18.00;59.28;152177.73;1805425;79;21220;-64
2022/07/11 02:05:40;;;;;;;;;;;;;;;17.91;59.54;152154.28;1805459;79;20153;-64
2022/07/11 02:08:13;;;;;;;;;;;;;;;17.84;59.88;152136.03;1805458;79;20152;-63
2022/07/11 02:10:45;;;;;;;;;;;;;;;17.74;60.11;152112.53;1795698;78;20123;-64
2022/07/11 02:13:14;;;;;;;;;;;;;;;17.65;60.47;152087.75;1776770;79;20443;-63
2022/07/11 02:15:40;;;;;;;;;;;;;;;17.58;60.87;152070.83;1776670;80;20761;-62
2022/07/11 02:18:10;;;;;;;;;;;;;;;17.55;61.17;152062.97;1756932;81;20149;-63
2022/07/11 02:20:38;;;;;;;;;;;;;;;17.52;61.54;152056.47;1757034;81;20164;-62
2022/07/11 02:23:05;;;;;;;;;;;;;;;17.51;61.86;152052.55;1757303;81;20201;-62
2022/07/11 02:25:35;;;;;;;;;;;;;;;17.50;62.07;152049.94;1757014;81;20224;-62
2022/07/11 02:28:02;;;;;;;;;;;;;;;17.51;62.28;152052.55;1756910;81;21220;-62
2022/07/11 02:30:29;;;;;;;;;;;;;;;17.49;62.42;152047.33;1756823;81;20471;-61
2022/07/11 02:32:55;;;;;;;;;;;;;;;17.47;62.59;152044.72;1759959;81;20195;-61
2022/07/11 02:35:23;;;;;;;;;;;;;;;17.48;62.67;152046.05;1771570;81;20192;-62
2022/07/11 02:37:50;;;;;;;;;;;;;;;17.46;62.75;152042.12;1771061;81;20141;-62
2022/07/11 02:40:17;;;;;;;;;;;;;;;17.47;62.85;152044.72;1771218;81;21272;-61
2022/07/11 02:42:44;;;;;;;;;;;;;;;17.51;62.88;152052.55;1771760;81;20391;-61
2022/07/11 02:45:11;;;;;;;;;;;;;;;17.53;62.87;152057.75;1771746;80;20501;-64
2022/07/11 02:47:39;;;;;;;;;;;;;;;17.52;62.84;152056.47;1771942;81;20104;-61
2022/07/11 02:50:11;;;;;;;;;;;;;;;17.53;62.90;152057.75;1772345;81;20192;-62
2022/07/11 02:52:38;;;;;;;;;;;;;;;17.56;62.80;152065.56;1772397;81;21190;-62
2022/07/11 02:55:08;;;;;;;;;;;;;;;17.59;62.92;152073.44;1771721;81;20116;-63
2022/07/11 02:57:35;;;;;;;;;;;;;;;17.63;62.84;152082.53;1772137;80;20593;-63
2022/07/11 03:00:04;;;;;;;;;;;;;;;17.68;62.74;152095.56;1772527;81;20151;-63
2022/07/11 03:02:31;;;;;;;;;;;;;;;17.73;62.76;152109.92;1771211;81;20175;-62
2022/07/11 03:04:58;;;;;;;;;;;;;;;17.86;62.68;152141.25;1771870;81;21260;-62
2022/07/11 03:07:27;;;;;;;;;;;;;;;17.96;62.34;152167.31;1771888;81;20586;-61
2022/07/11 03:09:56;;;;;;;;;;;;;;;18.04;62.00;152186.92;1771759;81;20148;-62
2022/07/11 03:12:24;;;;;;;;;;;;;;;18.12;61.83;152206.50;1716936;83;20231;-62
2022/07/11 03:14:50;;;;;;;;;;;;;;;18.19;61.56;152224.75;1716924;83;20200;-62
2022/07/11 03:17:18;;;;;;;;;;;;;;;18.23;61.28;152233.89;1716833;83;21283;-62
2022/07/11 03:19:45;;;;;;;;;;;;;;;18.25;61.33;152240.44;1716974;83;20419;-63
2022/07/11 03:22:11;;;;;;;;;;;;;;;18.31;61.27;152256.08;1716956;83;20517;-62
2022/07/11 03:24:38;;;;;;;;;;;;;;;18.36;61.25;152267.84;1716972;83;20472;-62
2022/07/11 03:27:05;;;;;;;;;;;;;;;18.46;61.06;152293.91;1717256;83;20181;-63
2022/07/11 03:29:33;;;;;;;;;;;;;;;18.56;60.98;152318.70;1716656;83;21148;-63
2022/07/11 03:32:00;;;;;;;;;;;;;;;18.70;60.81;152352.64;1717024;83;20128;-62
2022/07/11 03:34:26;;;;;;;;;;;;;;;18.86;60.30;152394.38;1716831;83;20178;-63
2022/07/11 03:36:54;;;;;;;;;;;;;;;18.97;59.94;152420.50;1717081;83;20690;-63
2022/07/11 03:39:23;;;;;;;;;;;;;;;19.12;59.74;152459.72;1726140;80;20163;-62
2022/07/11 03:41:50;;;;;;;;;;;;;;;19.28;59.25;152500.17;1779281;80;21138;-62
2022/07/11 03:44:17;;;;;;;;;;;;;;;19.50;58.96;152555.00;1779747;80;20188;-64
2022/07/11 03:46:43;;;;;;;;;;;;;;;19.67;58.45;152598.08;1778232;80;20141;-63
2022/07/11 03:49:10;;;;;;;;;;;;;;;19.85;57.90;152643.77;1778477;80;20199;-62
2022/07/11 03:51:37;;;;;;;;;;;;;;;19.96;57.28;152671.25;1779315;80;20432;-62
2022/07/11 03:54:05;;;;;;;;;;;;;;;20.08;57.25;152700.00;1779384;80;21201;-62
2022/07/11 03:56:32;;;;;;;;;;;;;;;20.16;56.91;152720.88;1779635;80;20216;-62
2022/07/11 03:58:59;;;;;;;;;;;;;;;20.25;56.89;152744.42;1779221;80;20120;-62
2022/07/11 04:01:26;;;;;;;;;;;;;;;20.37;56.50;152773.14;1779368;80;20468;-63
2022/07/11 04:03:52;;;;;;;;;;;;;;;20.40;56.11;152780.97;1774611;80;20386;-61
2022/07/11 04:06:20;;;;;;;;;;;;;;;20.39;56.27;152778.36;1779289;80;21514;-61
2022/07/11 04:08:47;;;;;;;;;;;;;;;20.38;55.99;152775.75;1779770;80;20157;-62
2022/07/11 04:11:15;;;;;;;;;;;;;;;20.28;56.22;152752.25;1775263;80;20152;-62
2022/07/11 04:13:42;;;;;;;;;;;;;;;20.20;56.56;152730.03;1771962;81;20145;-61
2022/07/11 04:16:09;;;;;;;;;;;;;;;20.20;56.80;152730.03;1771962;81;20181;-62
2022/07/11 04:18:37;;;;;;;;;;;;;;;20.21;56.88;152733.94;1771533;81;21228;-62
2022/07/11 04:21:04;;;;;;;;;;;;;;;20.24;56.97;152741.81;1771819;81;20212;-62
2022/07/11 04:23:31;;;;;;;;;;;;;;;20.30;56.69;152757.47;1771893;81;20172;-62
2022/07/11 04:25:58;;;;;;;;;;;;;;;20.36;56.68;152770.53;1771756;81;20212;-62
2022/07/11 04:28:25;;;;;;;;;;;;;;;20.45;56.56;152794.06;1770936;81;20212;-61
2022/07/11 04:30:51;;;;;;;;;;;;;;;20.52;56.30;152812.34;1771783;81;21237;-62
2022/07/11 04:33:18;;;;;;;;;;;;;;;20.59;56.31;152830.63;1765724;80;20228;-63
2022/07/11 04:35:45;;;;;;;;;;;;;;;20.66;56.26;152847.61;1723247;83;20179;-62
2022/07/11 04:38:12;;;;;;;;;;;;;;;20.78;56.07;152877.66;1723438;82;20208;-63
2022/07/11 04:40:38;;;;;;;;;;;;;;;20.87;56.02;152901.22;1723195;83;20472;-63
2022/07/11 04:43:05;;;;;;;;;;;;;;;20.99;55.41;152931.27;1723474;83;21896;-62
2022/07/11 04:45:32;;;;;;;;;;;;;;;21.02;55.48;152937.81;1723268;82;20204;-62
2022/07/11 04:48:01;;;;;;;;;;;;;;;21.07;55.34;152950.88;1723351;82;20172;-62
2022/07/11 04:50:29;;;;;;;;;;;;;;;21.12;55.42;152963.98;1723254;82;20463;-62
2022/07/11 04:52:55;;;;;;;;;;;;;;;21.25;55.24;152995.33;1723634;82;20150;-62
2022/07/11 04:55:22;;;;;;;;;;;;;;;21.36;54.88;153022.78;1723245;82;21238;-61
2022/07/11 04:57:49;;;;;;;;;;;;;;;21.37;54.69;153025.38;1723276;83;20492;-62
2022/07/11 05:00:16;;;;;;;;;;;;;;;21.40;54.88;153034.55;1723568;82;20195;-62
2022/07/11 05:02:43;;;;;;;;;;;;;;;21.47;54.55;153052.83;1723137;82;20195;-62
2022/07/11 05:05:10;;;;;;;;;;;;;;;21.49;54.57;153055.45;1723402;82;20517;-62
2022/07/11 05:07:38;;;;;;;;;;;;;;;21.55;54.41;153072.45;1739021;82;20127;-62
2022/07/11 05:10:05;;;;;;;;;;;;;;;21.55;54.37;153072.45;1737973;81;20598;-62
2022/07/11 05:12:32;;;;;;;;;;;;;;;21.57;54.56;153076.39;1725052;83;20155;-62
2022/07/11 05:15:00;;;;;;;;;;;;;;;21.65;54.38;153097.34;1724910;83;20165;-62
2022/07/11 05:17:27;;;;;;;;;;;;;;;21.73;54.12;153116.97;1726192;82;20206;-62
2022/07/11 05:19:54;;;;;;;;;;;;;;;21.70;53.98;153109.13;1728778;81;21094;-62
2022/07/11 05:22:21;;;;;;;;;;;;;;;21.68;54.01;153105.19;1741620;82;20215;-62
2022/07/11 05:24:47;;;;;;;;;;;;;;;21.65;54.09;153097.34;1736637;81;20201;-63
2022/07/11 05:27:14;;;;;;;;;;;;;;;21.68;54.06;153103.91;1734038;81;20222;-63
2022/07/11 05:29:41;;;;;;;;;;;;;;;21.67;53.89;153102.56;1717851;82;20195;-63
2022/07/11 05:32:08;;;;;;;;;;;;;;;21.70;53.66;153110.41;1716287;82;21245;-65
2022/07/11 05:34:34;;;;;;;;;;;;;;;21.70;53.51;153110.41;1718726;81;20108;-64
2022/07/11 05:37:01;;;;;;;;;;;;;;;21.67;53.38;153102.56;1711594;83;20219;-65
2022/07/11 05:39:28;;;;;;;;;;;;;;;21.61;53.50;153088.13;1731614;82;20482;-65
2022/07/11 05:41:55;;;;;;;;;;;;;;;21.55;53.74;153071.13;1706908;82;20150;-65
2022/07/11 05:44:22;;;;;;;;;;;;;;;21.57;54.04;153076.39;1717506;82;21258;-65
2022/07/11 05:46:49;;;;;;;;;;;;;;;21.63;53.73;153092.06;1730115;82;20176;-65
2022/07/11 05:49:15;;;;;;;;;;;;;;;21.69;53.45;153107.80;1736108;82;20191;-65
2022/07/11 05:51:42;;;;;;;;;;;;;;;21.73;53.37;153118.25;1734954;82;20680;-66
2022/07/11 05:54:09;;;;;;;;;;;;;;;21.80;53.60;153133.97;1742134;80;20203;-65
2022/07/11 05:56:35;;;;;;;;;;;;;;;21.87;53.65;153152.25;1704038;83;21115;-66
2022/07/11 05:59:02;;;;;;;;;;;;;;;22.03;53.32;153194.11;1721330;81;20198;-66
2022/07/11 06:01:31;;;;;;;;;;;;;;;22.20;53.06;153235.92;1768326;79;20163;-65
2022/07/11 06:03:59;;;;;;;;;;;;;;;22.41;52.61;153289.58;1770283;79;20946;-66
2022/07/11 06:06:26;;;;;;;;;;;;;;;22.67;52.02;153355.02;1770755;79;20460;-66
2022/07/11 06:08:53;;;;;;;;;;;;;;;22.84;51.11;153398.19;1773764;79;21128;-66
2022/07/11 06:11:21;;;;;;;;;;;;;;;22.91;50.51;153413.91;1772523;80;20160;-66
2022/07/11 06:13:53;;;;;;;;;;;;;;;22.89;49.98;153411.30;1773982;80;20387;-66
2022/07/11 06:16:16;;;;;;;;;;;;;;;22.80;50.15;153387.72;1771466;79;20178;-66
2022/07/11 06:18:43;;;;;;;;;;;;;;;22.80;50.41;153387.72;1772794;79;20120;-66
2022/07/11 06:21:10;;;;;;;;;;;;;;;22.99;50.17;153436.16;1770057;79;22137;-66
2022/07/11 06:23:36;;;;;;;;;;;;;;;23.21;49.69;153489.78;1767993;79;20515;-66
2022/07/11 06:26:04;;;;;;;;;;;;;;;23.26;49.07;153504.25;1770401;79;20499;-66
2022/07/11 06:28:31;;;;;;;;;;;;;;;23.31;49.00;153517.31;1770865;79;20150;-66
2022/07/11 06:30:57;;;;;;;;;;;;;;;23.36;48.66;153527.78;1767895;79;20190;-66
2022/07/11 06:33:24;;;;;;;;;;;;;;;23.26;48.82;153504.25;1764450;79;21027;-66
2022/07/11 06:35:51;;;;;;;;;;;;;;;23.26;49.01;153502.91;1780757;79;21069;-66
2022/07/11 06:38:18;;;;;;;;;;;;;;;23.32;48.88;153519.94;1786543;79;20448;-66
2022/07/11 06:40:46;;;;;;;;;;;;;;;23.46;48.98;153555.27;1777850;80;20468;-66
2022/07/11 06:43:14;;;;;;;;;;;;;;;23.65;48.46;153602.39;1799711;79;20118;-66
2022/07/11 06:45:41;;;;;;;;;;;;;;;23.80;47.78;153639.06;1788448;79;21159;-66
2022/07/11 06:48:08;;;;;;;;;;;;;;;23.84;47.35;153649.53;1785814;79;20168;-63
2022/07/11 06:50:36;;;;;;;;;;;;;;;23.78;47.60;153633.83;1778646;79;20166;-63
2022/07/11 06:53:03;;;;;;;;;;;;;;;23.76;47.63;153629.87;1776392;79;20459;-62
2022/07/11 06:55:31;;;;;;;;;;;;;;;23.68;47.76;153608.97;1787252;79;20632;-62
2022/07/11 06:57:58;;;;;;;;;;;;;;;23.64;48.01;153598.44;1777684;79;21358;-63
2022/07/11 07:00:26;;;;;;;;;;;;;;;23.59;47.89;153586.70;1777940;79;21231;-62
2022/07/11 07:02:54;;;;;;;;;;;;;;;23.46;48.02;153553.98;1763560;80;20644;-62
2022/07/11 07:05:22;;;;;;;;;;;;;;;23.30;48.48;153513.38;1775311;79;20189;-62
2022/07/11 07:07:50;;;;;;;;;;;;;;;23.19;48.78;153485.84;1790618;79;20167;-63
2022/07/11 07:10:17;;;;;;;;;;;;;;;23.16;48.99;153478.00;1791372;79;21875;-62
2022/07/11 07:12:44;;;;;;;;;;;;;;;23.16;48.95;153479.33;1797273;79;20505;-61
2022/07/11 07:15:12;;;;;;;;;;;;;;;23.14;48.87;153474.11;1786570;79;20450;-62
2022/07/11 07:17:39;;;;;;;;;;;;;;;23.07;48.78;153454.47;1781924;78;20150;-61
2022/07/11 07:20:08;;;;;;;;;;;;;;;22.94;49.11;153421.77;1779302;79;20145;-62
2022/07/11 07:22:35;;;;;;;;;;;;;;;22.83;49.26;153395.56;1776973;79;21214;-61
2022/07/11 07:25:02;;;;;;;;;;;;;;;22.77;49.68;153379.88;1780067;79;20124;-62
2022/07/11 07:27:30;;;;;;;;;;;;;;;22.80;49.83;153387.72;1786542;79;20447;-61
2022/07/11 07:29:57;;;;;;;;;;;;;;;22.84;49.92;153396.91;1783597;79;20152;-62
2022/07/11 07:32:24;;;;;;;;;;;;;;;22.80;50.19;153387.72;1781332;79;20166;-62
2022/07/11 07:34:51;;;;;;;;;;;;;;;22.70;50.58;153361.58;1776851;79;20527;-62
2022/07/11 07:37:17;;;;;;;;;;;;;;;22.68;50.83;153356.34;1785769;79;20260;-62
2022/07/11 07:39:44;;;;;;;;;;;;;;;22.71;51.05;153365.47;1785231;79;20482;-62
2022/07/11 07:42:11;;;;;;;;;;;;;;;22.73;51.14;153369.42;1781944;79;20255;-62
2022/07/11 07:44:37;;;;;;;;;;;;;;;22.63;51.09;153343.23;1776830;79;20581;-62
2022/07/11 07:47:04;;;;;;;;;;;;;;;22.50;51.38;153311.88;1777638;79;21229;-62
2022/07/11 07:49:31;;;;;;;;;;;;;;;22.39;51.72;153283.02;1781198;79;20512;-61
2022/07/11 07:51:58;;;;;;;;;;;;;;;22.33;51.98;153269.95;1748812;80;21092;-62
2022/07/11 07:54:25;;;;;;;;;;;;;;;22.30;52.24;153262.11;1767090;79;20172;-62
2022/07/11 07:56:53;;;;;;;;;;;;;;;22.30;52.17;153262.11;1773443;79;20290;-62
2022/07/11 07:59:24;;;;;;;;;;;;;;;22.33;52.44;153268.67;1774747;79;21783;-63
2022/07/11 08:01:49;;;;;;;;;;;;;;;22.43;51.64;153293.47;1777867;79;20098;-62
2022/07/11 08:04:17;;;;;;;;;;;;;;;22.40;51.53;153286.97;1773134;79;20102;-62
2022/07/11 08:06:43;;;;;;;;;;;;;;;22.37;51.66;153277.78;1774825;79;20161;-64
2022/07/11 08:09:10;;;;;;;;;;;;;;;22.28;51.76;153256.87;1774816;79;20459;-65
2022/07/11 08:11:36;;;;;;;;;;;;;;;22.28;51.76;153256.87;1775464;80;21132;-66
2022/07/11 08:14:03;;;;;;;;;;;;;;;22.17;52.08;153228.09;1777456;79;20201;-65
2022/07/11 08:16:31;;;;;;;;;;;;;;;22.05;52.58;153198.00;1777956;80;20804;-65
2022/07/11 08:19:03;;;;;;;;;;;;;;;21.97;53.24;153178.39;1777708;80;20121;-65
2022/07/11 08:21:30;;;;;;;;;;;;;;;21.92;53.83;153165.31;1777903;80;20186;-65
2022/07/11 08:23:57;;;;;;;;;;;;;;;22.03;54.23;153194.11;1779142;80;21253;-65
2022/07/11 08:26:24;;;;;;;;;;;;;;;22.23;53.86;153243.81;1778855;80;20180;-65
2022/07/11 08:28:52;;;;;;;;;;;;;;;22.45;53.74;153298.75;1779413;79;20495;-65
2022/07/11 08:31:19;;;;;;;;;;;;;;;22.68;53.14;153357.63;1779172;80;20135;-65
2022/07/11 08:33:45;;;;;;;;;;;;;;;22.86;52.36;153403.41;1778557;79;20148;-64
2022/07/11 08:36:12;;;;;;;;;;;;;;;22.93;52.14;153420.42;1759079;80;21209;-65
2022/07/11 08:38:43;;;;;;;;;;;;;;;22.96;52.19;153426.98;1752062;79;20455;-65
2022/07/11 08:41:08;;;;;;;;;;;;;;;22.99;51.89;153434.83;1752383;81;20223;-66
2022/07/11 08:43:35;;;;;;;;;;;;;;;23.07;52.00;153454.47;1752318;80;20887;-65
2022/07/11 08:46:03;;;;;;;;;;;;;;;23.27;51.37;153506.86;1752769;82;20128;-65
2022/07/11 08:48:30;;;;;;;;;;;;;;;23.44;50.69;153550.03;1752302;80;21106;-65
2022/07/11 08:50:57;;;;;;;;;;;;;;;23.63;50.07;153597.16;1764557;79;20175;-66
2022/07/11 08:53:23;;;;;;;;;;;;;;;23.86;49.73;153654.75;1773232;79;20174;-65
2022/07/11 08:55:51;;;;;;;;;;;;;;;24.07;49.00;153707.19;1756551;79;20152;-65
2022/07/11 08:58:18;;;;;;;;;;;;;;;24.22;48.49;153746.47;1762717;79;20233;-66
2022/07/11 09:00:45;;;;;;;;;;;;;;;24.41;47.75;153793.56;1770934;79;21195;-65
2022/07/11 09:03:13;;;;;;;;;;;;;;;24.52;46.86;153822.41;1767659;79;20279;-65
2022/07/11 09:05:41;;;;;;;;;;;;;;;24.62;46.53;153847.30;1713796;81;20246;-65
2022/07/11 09:08:08;;;;;;;;;;;;;;;24.72;45.91;153873.47;1760539;80;20614;-65
2022/07/11 09:10:40;;;;;;;;;;;;;;;24.77;45.49;153885.31;1762649;80;20208;-66
2022/07/11 09:13:08;;;;;;;;;;;;;;;24.89;46.04;153915.44;1764796;80;21089;-66
2022/07/11 09:15:40;;;;;;;;;;;;;;;25.23;45.60;154000.59;1749311;80;20182;-66
2022/07/11 09:18:38;;;;;;;;;;;;;;;25.52;44.66;154074.00;1743610;80;20166;-66
2022/07/11 09:26:39;;;;;;;;;;;;;;;26.25;42.24;154260.20;1773707;79;21186;-65
2022/07/11 09:29:08;;;;;;;;;;;;;;;26.19;41.87;154244.44;1773790;80;20438;-65
2022/07/11 09:31:36;;;;;;;;;;;;;;;26.19;42.42;154243.14;1775662;80;20549;-64
2022/07/11 09:34:12;;;;;;;;;;;;;;;26.36;41.87;154286.39;1777889;80;20201;-66
2022/07/11 09:36:41;;;;;;;;;;;;;;;26.55;40.85;154336.22;1780560;79;20185;-65
2022/07/11 09:39:09;;;;;;;;;;;;;;;26.58;40.39;154344.08;1781725;80;22158;-65
2022/07/11 09:41:37;;;;;;;;;;;;;;;26.54;40.43;154333.59;1776462;80;20195;-65
2022/07/11 09:44:15;;;;;;;;;;;;;;;26.46;40.29;154312.64;1776560;79;20512;-65
2022/07/11 09:46:42;;;;;;;;;;;;;;;26.46;40.36;154313.92;1776461;80;20169;-66
2022/07/11 09:49:09;;;;;;;;;;;;;;;26.51;40.41;154325.73;1775599;80;20148;-66
2022/07/11 09:51:37;;;;;;;;;;;;;;;26.66;39.88;154362.47;1777262;79;21239;-66
2022/07/11 09:54:08;;;;;;;;;;;;;;;26.87;39.03;154417.59;1777943;79;20148;-66
2022/07/11 09:56:43;;;;;;;;;;;;;;;27.06;38.36;154463.47;1777177;80;20283;-66
2022/07/11 09:59:09;;;;;;;;;;;;;;;27.25;37.10;154511.98;1784957;80;20400;-65
2022/07/11 10:01:36;;;;;;;;;;;;;;;27.31;35.81;154527.77;1785305;80;20979;-66
2022/07/11 10:04:05;;;;;;;;;;;;;;;27.31;35.62;154529.05;1780366;80;21172;-66
2022/07/11 10:06:31;;;;;;;;;;;;;;;27.45;35.44;154564.47;1777752;80;20138;-65
2022/07/11 10:08:58;;;;;;;;;;;;;;;27.62;33.91;154606.50;1783559;80;20161;-65
2022/07/11 10:11:25;;;;;;;;;;;;;;;27.65;33.29;154613.08;1782173;80;20200;-65
2022/07/11 10:13:52;;;;;;;;;;;;;;;27.66;32.93;154616.98;1782542;80;20194;-65
2022/07/11 10:16:41;;;;;;;;;;;;;;;27.51;33.06;154577.56;1783094;80;21068;-65
2022/07/11 10:19:27;;;;;;;;;;;;;;;27.36;33.31;154540.88;1783535;80;20176;-67
2022/07/11 10:22:14;;;;;;;;;;;;;;;27.29;33.19;154522.47;1783634;79;20086;-65
2022/07/11 10:24:53;;;;;;;;;;;;;;;27.26;33.38;154514.61;1766633;80;20197;-66
2022/07/11 10:27:36;;;;;;;;;;;;;;;27.39;33.01;154548.73;1790499;79;20129;-66
2022/07/11 10:30:05;;;;;;;;;;;;;;;27.40;33.11;154551.34;1777285;80;20550;-66
2022/07/11 10:32:33;;;;;;;;;;;;;;;27.45;33.28;154563.17;1785185;80;20590;-66
2022/07/11 10:35:10;;;;;;;;;;;;;;;27.63;32.75;154609.13;1781922;80;20172;-66
2022/07/11 10:37:46;;;;;;;;;;;;;;;27.75;32.29;154639.30;1768648;79;20477;-66
2022/07/11 10:40:13;;;;;;;;;;;;;;;27.70;31.58;154627.47;1771045;80;20139;-66
2022/07/11 10:42:40;;;;;;;;;;;;;;;27.34;31.65;154535.63;1763704;81;21182;-66
2022/07/11 10:45:08;;;;;;;;;;;;;;;27.12;32.32;154480.53;1801436;78;20477;-66
2022/07/11 10:47:41;;;;;;;;;;;;;;;27.12;33.22;154480.53;1760119;78;20188;-66
2022/07/11 10:50:21;;;;;;;;;;;;;;;27.25;32.94;154511.98;1763750;80;20775;-66
2022/07/11 10:52:48;;;;;;;;;;;;;;;27.26;32.94;154515.94;1790398;79;20212;-65
2022/07/11 10:55:35;;;;;;;;;;;;;;;27.48;32.76;154569.70;1796049;79;21175;-66
2022/07/11 10:58:09;;;;;;;;;;;;;;;27.72;32.17;154632.72;1746569;81;20231;-66
2022/07/11 11:00:36;;;;;;;;;;;;;;;27.80;31.73;154651.13;1772353;79;20215;-66
2022/07/11 11:03:10;;;;;;;;;;;;;;;27.86;31.37;154666.84;1780901;79;20560;-66
2022/07/11 11:05:54;;;;;;;;;;;;;;;27.93;31.30;154683.92;1747263;82;20499;-67
2022/07/11 11:08:40;;;;;;;;;;;;;;;28.06;30.27;154716.72;1772961;79;21320;-68
2022/07/11 11:11:23;;;;;;;;;;;;;;;27.87;30.03;154670.81;1775723;79;20172;-68
2022/07/11 11:14:18;;;;;;;;;;;;;;;27.65;30.53;154614.38;1774325;80;20169;-67
2022/07/11 11:16:45;;;;;;;;;;;;;;;27.65;31.23;154614.38;1769483;79;20168;-68
2022/07/11 11:19:45;;;;;;;;;;;;;;;27.82;31.52;154656.36;1771145;79;20251;-67
2022/07/11 11:22:13;;;;;;;;;;;;;;;28.01;30.96;154706.23;1716638;79;21071;-67
2022/07/11 11:24:39;;;;;;;;;;;;;;;28.15;31.46;154741.70;1776580;79;20552;-67
2022/07/11 11:27:10;;;;;;;;;;;;;;;28.25;31.67;154765.31;1782993;78;20145;-67
2022/07/11 11:29:36;;;;;;;;;;;;;;;28.43;31.52;154812.56;1791506;79;20224;-68
2022/07/11 11:32:03;;;;;;;;;;;;;;;28.64;31.30;154865.06;1774307;80;20172;-68
2022/07/11 11:34:30;;;;;;;;;;;;;;;28.76;30.90;154893.97;1786931;79;21101;-68
2022/07/11 11:37:00;;;;;;;;;;;;;;;28.76;30.33;154893.97;1783776;78;20514;-68
2022/07/11 11:39:29;;;;;;;;;;;;;;;28.69;29.86;154876.89;1772597;79;20413;-68
2022/07/11 11:42:01;;;;;;;;;;;;;;;28.62;30.11;154858.48;1767538;81;20125;-69
2022/07/11 11:44:28;;;;;;;;;;;;;;;28.63;30.15;154861.11;1771633;79;20260;-68
2022/07/11 11:46:55;;;;;;;;;;;;;;;28.68;30.08;154875.56;1771323;79;21290;-69
2022/07/11 11:49:22;;;;;;;;;;;;;;;28.61;30.44;154857.19;1781259;79;20638;-68
2022/07/11 11:51:48;;;;;;;;;;;;;;;28.51;29.97;154830.92;1795081;79;20238;-67
2022/07/11 11:54:23;;;;;;;;;;;;;;;28.39;30.00;154802.06;1768417;79;20780;-68
2022/07/11 11:56:49;;;;;;;;;;;;;;;28.35;30.52;154790.25;1764122;79;20200;-67
2022/07/11 11:59:16;;;;;;;;;;;;;;;28.37;30.71;154796.83;1767087;79;21949;-67
2022/07/11 12:01:47;;;;;;;;;;;;;;;28.25;30.38;154766.64;1769055;79;20456;-69
2022/07/11 12:04:15;;;;;;;;;;;;;;;27.97;30.43;154694.41;1765930;79;20183;-69
2022/07/11 12:06:50;;;;;;;;;;;;;;;27.76;30.93;154640.63;1770426;79;20360;-70
2022/07/11 12:09:45;;;;;;;;;;;;;;;27.63;31.10;154609.13;1761153;79;20209;-69
2022/07/11 12:12:43;;;;;;;;;;;;;;;27.45;31.58;154564.47;1770882;79;21730;-69
2022/07/11 12:14:21;;;;;;;;;;;;;;;27.56;31.82;154592.06;1761469;79;20683;-66
2022/07/11 12:16:48;;;;;;;;;;;;;;;27.70;31.72;154627.47;1768177;79;20332;-66
2022/07/11 12:19:19;;;;;;;;;;;;;;;27.86;31.52;154666.84;1769672;79;20179;-67
2022/07/11 12:21:47;;;;;;;;;;;;;;;27.94;31.77;154686.55;1767571;79;20917;-66
2022/07/11 12:24:17;;;;;;;;;;;;;;;28.15;31.66;154740.31;1772515;80;20143;-66
2022/07/11 12:26:44;;;;;;;;;;;;;;;28.34;31.43;154787.62;1769987;79;20186;-66
2022/07/11 12:29:16;;;;;;;;;;;;;;;28.49;31.27;154827.00;1773432;80;20161;-66
2022/07/11 12:31:45;;;;;;;;;;;;;;;28.58;31.01;154850.61;1769522;79;20479;-66
2022/07/11 12:34:12;;;;;;;;;;;;;;;28.69;30.84;154878.19;1743913;81;20146;-66
2022/07/11 12:36:39;;;;;;;;;;;;;;;28.70;30.83;154879.52;1773553;80;21204;-65
2022/07/11 12:39:05;;;;;;;;;;;;;;;28.74;30.81;154890.00;1788607;79;20290;-66
2022/07/11 12:41:32;;;;;;;;;;;;;;;28.87;30.81;154922.88;1776735;79;20522;-65
2022/07/11 12:46:47;;;;;;;;;;;;;;;28.88;30.17;154926.84;1761037;80;20178;-66
2022/07/11 12:49:13;;;;;;;;;;;;;;;28.87;30.10;154922.88;1750392;80;21056;-64
2022/07/11 12:51:44;;;;;;;;;;;;;;;28.82;29.48;154911.05;1759535;81;20293;-65